Time;durP1;ratioP1;P1;durP2;ratioP2;P2;SDS_P1;SDS_P2;PMS_P1;PMS_P2;Temp;Humidity;BMP_temperature;BMP_pressure;BME280_temperature;BME280_humidity;BME280_pressure;Samples;Min_cycle;Max_cycle;Signal;HPM_P1;HPM_P2
2021/12/27 00:00:59;;;;;;;35.47;17.85;;;0.60;99.90;;;;;;5019868;28;20203;-91
2021/12/27 00:03:25;;;;;;;33.95;17.70;;;0.60;99.90;;;;;;5023184;28;20313;-91
2021/12/27 00:05:50;;;;;;;28.40;13.27;;;0.50;99.90;;;;;;5021207;28;20226;-89
2021/12/27 00:08:16;;;;;;;19.27;11.63;;;0.50;99.90;;;;;;5018675;28;20178;-90
2021/12/27 00:10:42;;;;;;;14.73;9.10;;;0.50;99.90;;;;;;5018761;28;20249;-91
2021/12/27 00:13:08;;;;;;;17.37;9.77;;;0.50;99.90;;;;;;5036410;28;20171;-90
2021/12/27 00:15:34;;;;;;;12.70;8.23;;;0.50;99.90;;;;;;5018629;28;20557;-89
2021/12/27 00:18:00;;;;;;;18.00;9.40;;;0.50;99.90;;;;;;5036287;28;20408;-91
2021/12/27 00:20:27;;;;;;;14.90;9.63;;;0.50;99.90;;;;;;5017865;28;20203;-91
2021/12/27 00:22:53;;;;;;;30.05;15.32;;;0.50;99.90;;;;;;5018231;28;20424;-88
2021/12/27 00:25:19;;;;;;;29.33;13.77;;;0.50;99.90;;;;;;5036084;28;20191;-89
2021/12/27 00:27:46;;;;;;;19.88;10.88;;;0.50;99.90;;;;;;5018525;28;20182;-88
2021/12/27 00:30:13;;;;;;;19.63;9.77;;;0.50;99.90;;;;;;5018408;28;20233;-89
2021/12/27 00:32:40;;;;;;;19.77;11.70;;;0.50;99.90;;;;;;5018283;28;20186;-89
2021/12/27 00:35:08;;;;;;;15.75;9.13;;;0.50;99.90;;;;;;5029668;28;20194;-91
2021/12/27 00:37:34;;;;;;;16.83;9.90;;;0.50;99.90;;;;;;5045367;28;20181;-89
2021/12/27 00:40:00;;;;;;;14.80;9.30;;;0.50;99.90;;;;;;5035796;28;20212;-89
2021/12/27 00:42:26;;;;;;;15.98;9.20;;;0.50;99.90;;;;;;5018178;28;20183;-89
2021/12/27 00:44:52;;;;;;;13.80;8.07;;;0.50;99.90;;;;;;5018072;28;20293;-91
2021/12/27 00:47:17;;;;;;;16.40;10.00;;;0.50;99.90;;;;;;5035676;28;20992;-91
2021/12/27 00:49:43;;;;;;;30.53;12.43;;;0.50;99.90;;;;;;5017928;28;20229;-91
2021/12/27 00:52:09;;;;;;;24.80;12.77;;;0.50;99.90;;;;;;5018684;28;20233;-89
2021/12/27 00:54:34;;;;;;;81.13;28.53;;;0.50;99.90;;;;;;5018859;28;20175;-92
2021/12/27 00:57:00;;;;;;;79.67;26.50;;;0.50;99.90;;;;;;5018155;28;20608;-89
2021/12/27 00:59:26;;;;;;;73.47;29.50;;;0.50;99.90;;;;;;5017786;28;20228;-92
2021/12/27 01:01:52;;;;;;;74.57;28.67;;;0.50;99.90;;;;;;5035850;28;20386;-89
2021/12/27 01:04:18;;;;;;;86.70;30.67;;;0.50;99.90;;;;;;5017800;28;20190;-91
2021/12/27 01:06:43;;;;;;;75.03;30.67;;;0.50;99.90;;;;;;5017661;28;20206;-88
2021/12/27 01:09:13;;;;;;;65.53;25.00;;;0.50;99.90;;;;;;5050484;28;20644;-89
2021/12/27 01:12:08;;;;;;;72.13;28.27;;;0.50;99.90;;;;;;5017968;28;20422;-89
2021/12/27 01:14:40;;;;;;;48.60;21.15;;;0.50;99.90;;;;;;5034962;28;20178;-88
2021/12/27 01:17:06;;;;;;;60.85;26.13;;;0.50;99.90;;;;;;5035084;28;20268;-88
2021/12/27 01:19:32;;;;;;;49.75;21.80;;;0.50;99.90;;;;;;5017990;28;20210;-89
2021/12/27 01:21:58;;;;;;;73.68;29.33;;;0.60;99.90;;;;;;5050873;28;20178;-91
2021/12/27 01:24:23;;;;;;;77.57;29.60;;;0.50;99.90;;;;;;5025255;28;20179;-89
2021/12/27 01:26:49;;;;;;;49.67;19.63;;;0.60;99.90;;;;;;5063713;28;20182;-89
2021/12/27 01:29:15;;;;;;;29.10;14.50;;;0.60;99.90;;;;;;5022166;28;20662;-91
2021/12/27 01:31:40;;;;;;;20.07;10.50;;;0.60;99.90;;;;;;5020298;28;20194;-91
2021/12/27 01:34:06;;;;;;;21.27;12.17;;;0.70;99.90;;;;;;5038220;28;20182;-90
2021/12/27 01:36:32;;;;;;;35.17;15.90;;;0.60;99.90;;;;;;5023730;28;20650;-89
2021/12/27 01:39:04;;;;;;;36.30;17.02;;;0.60;99.90;;;;;;5017025;28;20178;-91
2021/12/27 01:41:30;;;;;;;24.73;10.57;;;0.60;99.90;;;;;;5034913;28;20743;-89
2021/12/27 01:43:55;;;;;;;13.15;9.27;;;0.60;99.90;;;;;;5017287;28;20265;-89
2021/12/27 01:46:24;;;;;;;15.17;10.10;;;0.60;99.90;;;;;;5017048;28;20214;-91
2021/12/27 01:48:55;;;;;;;43.65;16.73;;;0.60;99.90;;;;;;5017233;28;20415;-89
2021/12/27 01:51:27;;;;;;;28.27;12.68;;;0.60;99.90;;;;;;5034691;28;20643;-88
2021/12/27 01:53:53;;;;;;;47.55;19.20;;;0.60;99.90;;;;;;5049983;28;20214;-89
2021/12/27 01:56:21;;;;;;;44.60;16.10;;;0.60;99.90;;;;;;5034589;28;20226;-89
2021/12/27 01:58:49;;;;;;;31.60;15.70;;;0.60;99.90;;;;;;5017097;28;20178;-92
2021/12/27 02:01:15;;;;;;;42.33;19.42;;;0.50;99.90;;;;;;5050145;28;20619;-88
2021/12/27 02:03:42;;;;;;;27.23;14.70;;;0.60;99.90;;;;;;5050090;28;20321;-89
2021/12/27 02:06:11;;;;;;;27.75;12.57;;;0.50;99.90;;;;;;5016943;28;20437;-88
2021/12/27 02:08:39;;;;;;;27.50;13.45;;;0.50;99.90;;;;;;5038577;28;20187;-88
2021/12/27 02:11:06;;;;;;;17.77;11.38;;;0.50;99.90;;;;;;5063777;28;20214;-88
2021/12/27 02:13:32;;;;;;;23.80;11.85;;;0.60;99.90;;;;;;5034979;28;20178;-91
2021/12/27 02:15:58;;;;;;;22.25;10.95;;;0.50;99.90;;;;;;5061816;28;20222;-88
2021/12/27 02:18:24;;;;;;;25.67;13.10;;;0.50;99.90;;;;;;5034892;28;20182;-91
2021/12/27 02:20:50;;;;;;;32.77;15.97;;;0.50;99.90;;;;;;5016998;28;20349;-91
2021/12/27 02:23:17;;;;;;;17.13;9.60;;;0.40;99.90;;;;;;5034544;28;20171;-88
2021/12/27 02:25:46;;;;;;;23.08;11.35;;;0.50;99.90;;;;;;5017016;28;20205;-89
2021/12/27 02:28:13;;;;;;;16.35;9.80;;;0.40;99.90;;;;;;5049560;28;20655;-89
2021/12/27 02:30:41;;;;;;;27.75;14.75;;;0.40;99.90;;;;;;5016470;28;20288;-91
2021/12/27 02:33:08;;;;;;;37.97;17.30;;;0.40;99.90;;;;;;5016739;28;20206;-88
2021/12/27 02:35:38;;;;;;;28.10;13.27;;;0.40;99.90;;;;;;5016286;28;20318;-88
2021/12/27 02:38:07;;;;;;;32.20;16.58;;;0.40;99.90;;;;;;5016694;28;20181;-89
2021/12/27 02:40:35;;;;;;;34.15;14.95;;;0.40;99.90;;;;;;5016384;28;20206;-89
2021/12/27 02:43:07;;;;;;;63.30;22.10;;;0.40;99.90;;;;;;5036339;28;20257;-88
2021/12/27 02:45:50;;;;;;;33.85;16.38;;;0.40;99.90;;;;;;5037982;28;20195;-88
2021/12/27 02:48:20;;;;;;;49.92;20.75;;;0.40;99.90;;;;;;5053440;28;20171;-91
2021/12/27 02:50:48;;;;;;;36.90;18.02;;;0.50;99.90;;;;;;5053201;28;20207;-88
2021/12/27 02:53:15;;;;;;;60.25;22.08;;;0.40;99.90;;;;;;5037662;28;20648;-88
2021/12/27 02:55:41;;;;;;;40.25;18.23;;;0.40;99.90;;;;;;5037623;28;20229;-91
2021/12/27 02:58:07;;;;;;;30.08;13.95;;;0.50;99.90;;;;;;5022700;28;20213;-91
2021/12/27 03:00:39;;;;;;;32.80;15.35;;;0.50;99.90;;;;;;5020680;28;20210;-92
2021/12/27 03:03:05;;;;;;;41.05;17.67;;;0.50;99.90;;;;;;5033727;28;20205;-89
2021/12/27 03:05:32;;;;;;;48.97;18.13;;;0.50;99.90;;;;;;5031757;28;20193;-91
2021/12/27 03:07:59;;;;;;;29.95;16.38;;;0.50;99.90;;;;;;5030371;28;20644;-89
2021/12/27 03:10:28;;;;;;;49.35;19.75;;;0.50;99.90;;;;;;5019966;28;20668;-90
2021/12/27 03:12:55;;;;;;;40.67;18.75;;;0.50;99.90;;;;;;5037398;28;20171;-91
2021/12/27 03:15:23;;;;;;;42.65;20.00;;;0.50;99.90;;;;;;5037283;28;20206;-87
2021/12/27 03:17:50;;;;;;;49.65;19.55;;;0.50;99.90;;;;;;5019983;28;20183;-91
2021/12/27 03:20:18;;;;;;;35.88;15.07;;;0.50;99.90;;;;;;5037122;28;20195;-87
2021/12/27 03:22:44;;;;;;;60.10;19.83;;;0.50;99.90;;;;;;5037206;28;20179;-91
2021/12/27 03:25:14;;;;;;;62.92;22.17;;;0.50;99.90;;;;;;5019636;28;20206;-92
2021/12/27 03:27:40;;;;;;;49.25;17.65;;;0.50;99.90;;;;;;5019828;28;20265;-92
2021/12/27 03:30:09;;;;;;;45.50;17.40;;;0.50;99.90;;;;;;5019794;28;20233;-92
2021/12/27 03:32:36;;;;;;;19.45;11.52;;;0.40;99.90;;;;;;5019466;28;20390;-88
2021/12/27 03:35:10;;;;;;;26.42;15.15;;;0.40;99.90;;;;;;5019140;28;20202;-91
2021/12/27 03:37:38;;;;;;;88.53;26.75;;;0.40;99.90;;;;;;5019832;28;20178;-89
2021/12/27 03:40:06;;;;;;;40.75;16.48;;;0.40;99.90;;;;;;5019019;28;20270;-89
2021/12/27 03:42:32;;;;;;;66.82;23.98;;;0.40;99.90;;;;;;5019456;28;20182;-88
2021/12/27 03:44:57;;;;;;;46.37;19.03;;;0.40;99.90;;;;;;5019101;28;20198;-89
2021/12/27 03:47:23;;;;;;;49.10;19.37;;;0.40;99.90;;;;;;5019584;28;20762;-88
2021/12/27 03:49:49;;;;;;;65.77;23.40;;;0.40;99.90;;;;;;5037471;28;20489;-89
2021/12/27 03:52:15;;;;;;;49.47;17.97;;;0.40;99.90;;;;;;5043229;28;20262;-92
2021/12/27 03:54:41;;;;;;;46.37;19.70;;;0.50;99.90;;;;;;5018642;28;20440;-91
2021/12/27 03:57:06;;;;;;;70.90;23.30;;;0.50;99.90;;;;;;5021526;28;20841;-92
2021/12/27 04:02:14;;;;;;;53.90;22.80;;;0.50;99.90;;;;;;5040080;28;20230;-91
2021/12/27 04:04:42;;;;;;;56.97;25.38;;;0.50;99.90;;;;;;5038273;28;20640;-91
2021/12/27 04:07:09;;;;;;;35.33;17.90;;;0.50;99.90;;;;;;5019004;28;20242;-92
2021/12/27 04:09:36;;;;;;;25.75;14.93;;;0.50;99.90;;;;;;5052219;28;20269;-89
2021/12/27 04:12:02;;;;;;;31.88;15.60;;;0.50;99.90;;;;;;5036698;28;20178;-89
2021/12/27 04:14:29;;;;;;;47.00;20.67;;;0.50;99.90;;;;;;5018762;28;20183;-89
2021/12/27 04:16:54;;;;;;;37.97;16.17;;;0.50;99.90;;;;;;5018977;28;20229;-89
2021/12/27 04:19:20;;;;;;;36.33;16.57;;;0.50;99.90;;;;;;5018595;28;20174;-89
2021/12/27 04:21:46;;;;;;;44.20;22.10;;;0.50;99.90;;;;;;5018755;28;20210;-88
2021/12/27 04:24:12;;;;;;;31.83;15.60;;;0.60;99.90;;;;;;5018495;28;20177;-91
2021/12/27 04:26:38;;;;;;;20.77;13.80;;;0.60;99.90;;;;;;5036391;28;20432;-88
2021/12/27 04:29:04;;;;;;;24.50;12.80;;;0.60;99.90;;;;;;5051752;28;20182;-90
2021/12/27 04:31:30;;;;;;;30.83;15.68;;;0.60;99.90;;;;;;5036231;28;20198;-92
2021/12/27 04:33:56;;;;;;;45.07;21.63;;;0.60;99.90;;;;;;5051515;28;20334;-87
2021/12/27 04:36:21;;;;;;;28.23;14.20;;;0.60;99.90;;;;;;5018162;28;20537;-89
2021/12/27 04:38:47;;;;;;;29.53;15.90;;;0.60;99.90;;;;;;5018354;28;20514;-89
2021/12/27 04:41:16;;;;;;;22.13;12.33;;;0.70;99.90;;;;;;5051305;28;20214;-88
2021/12/27 04:43:42;;;;;;;63.38;22.25;;;0.60;99.90;;;;;;5035700;28;20179;-91
2021/12/27 04:46:09;;;;;;;36.15;18.70;;;0.60;99.90;;;;;;5018167;28;20203;-91
2021/12/27 04:48:35;;;;;;;29.92;15.80;;;0.60;99.90;;;;;;5035651;28;20602;-87
2021/12/27 04:51:00;;;;;;;25.27;13.43;;;0.70;99.90;;;;;;5017903;28;20210;-92
2021/12/27 04:53:26;;;;;;;24.10;12.47;;;0.70;99.90;;;;;;5035564;28;20194;-89
2021/12/27 04:55:52;;;;;;;24.03;13.97;;;0.70;99.90;;;;;;5035902;28;20671;-92
2021/12/27 04:58:23;;;;;;;19.33;13.43;;;0.70;99.90;;;;;;5050944;28;20174;-88
2021/12/27 05:00:52;;;;;;;23.80;13.35;;;0.70;99.90;;;;;;5018173;28;20210;-88
2021/12/27 05:03:17;;;;;;;27.30;14.80;;;0.70;99.90;;;;;;5017890;28;20211;-92
2021/12/27 05:05:45;;;;;;;21.20;13.97;;;0.70;99.90;;;;;;5017339;28;20210;-92
2021/12/27 05:08:12;;;;;;;29.70;14.60;;;0.70;99.90;;;;;;5017828;28;20178;-91
2021/12/27 05:10:38;;;;;;;26.98;13.60;;;0.70;99.90;;;;;;5019072;28;20214;-92
2021/12/27 05:13:04;;;;;;;30.05;16.45;;;0.70;99.90;;;;;;5039078;28;20175;-91
2021/12/27 05:15:30;;;;;;;27.23;14.50;;;0.70;99.90;;;;;;5037750;28;20214;-91
2021/12/27 05:17:56;;;;;;;26.08;14.10;;;0.70;99.90;;;;;;5019742;28;20221;-88
2021/12/27 05:20:22;;;;;;;23.03;13.80;;;0.70;99.90;;;;;;5035476;28;20210;-89
2021/12/27 05:22:48;;;;;;;28.35;15.23;;;0.60;99.90;;;;;;5017526;28;20170;-91
2021/12/27 05:25:16;;;;;;;26.42;14.50;;;0.60;99.90;;;;;;5034809;28;20202;-88
2021/12/27 05:27:42;;;;;;;35.10;16.88;;;0.60;99.90;;;;;;5055029;28;20177;-87
2021/12/27 05:30:09;;;;;;;35.50;18.25;;;0.60;99.90;;;;;;5036219;28;20210;-89
2021/12/27 05:32:37;;;;;;;32.40;16.27;;;0.60;99.90;;;;;;5031722;28;20170;-89
2021/12/27 05:35:04;;;;;;;29.13;14.18;;;0.60;99.90;;;;;;5050074;28;20199;-91
2021/12/27 05:37:30;;;;;;;23.42;14.63;;;0.60;99.90;;;;;;5019156;28;20242;-88
2021/12/27 05:39:57;;;;;;;24.80;15.20;;;0.60;99.90;;;;;;5017421;28;20209;-91
2021/12/27 05:42:23;;;;;;;23.52;14.57;;;0.60;99.90;;;;;;5034943;28;20175;-91
2021/12/27 05:44:49;;;;;;;25.00;14.87;;;0.60;99.90;;;;;;5034535;28;20202;-88
2021/12/27 05:47:14;;;;;;;24.70;13.60;;;0.60;99.90;;;;;;5050191;28;20184;-89
2021/12/27 05:49:40;;;;;;;22.13;13.70;;;0.60;99.90;;;;;;5017226;28;20703;-91
2021/12/27 05:52:06;;;;;;;25.97;15.60;;;0.60;99.90;;;;;;5006246;28;20229;-91
2021/12/27 05:54:32;;;;;;;24.05;14.68;;;0.60;99.90;;;;;;5016946;28;20512;-87
2021/12/27 05:56:57;;;;;;;23.70;14.93;;;0.60;99.90;;;;;;5016963;28;20214;-91
2021/12/27 05:59:23;;;;;;;23.90;13.37;;;0.60;99.90;;;;;;5017882;28;20652;-92
2021/12/27 06:01:49;;;;;;;24.43;14.30;;;0.60;99.90;;;;;;5037419;28;20186;-88
2021/12/27 06:04:14;;;;;;;24.80;14.63;;;0.60;99.90;;;;;;5036001;28;20179;-94
2021/12/27 06:06:40;;;;;;;23.77;15.40;;;0.60;99.90;;;;;;5035918;28;20489;-91
2021/12/27 06:09:06;;;;;;;22.40;14.13;;;0.60;99.90;;;;;;5027920;28;20181;-88
2021/12/27 06:11:32;;;;;;;27.40;15.50;;;0.70;99.90;;;;;;5036923;28;20487;-88
2021/12/27 06:13:58;;;;;;;28.60;16.73;;;0.60;99.90;;;;;;5032672;28;20220;-87
2021/12/27 06:16:24;;;;;;;35.00;17.85;;;0.70;99.90;;;;;;5032722;28;20215;-89
2021/12/27 06:18:50;;;;;;;27.17;15.60;;;0.70;99.90;;;;;;5018458;28;20181;-90
2021/12/27 06:21:16;;;;;;;28.37;15.70;;;0.70;99.90;;;;;;5036638;28;20648;-91
2021/12/27 06:23:42;;;;;;;24.88;14.50;;;0.70;99.90;;;;;;5036525;28;20249;-88
2021/12/27 06:27:48;;;;;;;21.50;14.60;;;0.70;99.90;;;;;;5062672;28;20542;-69
2021/12/27 06:30:16;;;;;;;25.02;14.15;;;0.70;99.90;;;;;;5049092;28;20181;-67
2021/12/27 06:32:43;;;;;;;24.02;14.18;;;0.70;99.90;;;;;;5050872;28;20557;-68
2021/12/27 06:35:12;;;;;;;27.00;14.30;;;0.70;99.90;;;;;;5049689;28;20595;-69
2021/12/27 06:37:41;;;;;;;27.00;14.38;;;0.80;99.90;;;;;;5049838;28;20279;-69
2021/12/27 06:40:12;;;;;;;21.35;13.75;;;0.80;99.90;;;;;;5049722;28;20639;-71
2021/12/27 06:42:46;;;;;;;27.90;17.30;;;0.80;99.90;;;;;;5049429;28;20206;-69
2021/12/27 06:45:15;;;;;;;23.83;14.68;;;0.80;99.90;;;;;;5049849;28;20202;-71
2021/12/27 06:47:46;;;;;;;26.10;16.30;;;0.80;99.90;;;;;;5049685;28;20366;-69
2021/12/27 06:50:13;;;;;;;28.88;15.43;;;0.80;99.90;;;;;;5048899;28;20534;-71
2021/12/27 06:52:42;;;;;;;21.75;13.57;;;0.80;99.90;;;;;;5049468;28;20206;-72
2021/12/27 06:55:14;;;;;;;23.17;14.32;;;0.80;99.90;;;;;;5048845;28;20273;-69
2021/12/27 06:58:00;;;;;;;18.95;12.73;;;0.90;99.90;;;;;;5048344;28;20230;-69
2021/12/27 07:00:31;;;;;;;19.23;12.50;;;0.90;99.90;;;;;;5049354;28;20177;-69
2021/12/27 07:02:58;;;;;;;20.35;11.38;;;0.90;99.90;;;;;;5049177;28;20691;-71
2021/12/27 07:05:29;;;;;;;20.58;13.02;;;0.90;99.90;;;;;;5048041;28;20543;-71
2021/12/27 07:07:57;;;;;;;27.13;13.13;;;0.90;99.90;;;;;;5048977;28;20569;-69
2021/12/27 07:10:24;;;;;;;25.05;14.45;;;0.90;99.90;;;;;;5049001;28;20543;-71
2021/12/27 07:12:59;;;;;;;19.08;13.35;;;0.90;99.90;;;;;;5048741;28;20563;-69
2021/12/27 07:15:31;;;;;;;23.42;13.50;;;0.90;99.90;;;;;;5049109;28;20685;-70
2021/12/27 07:18:07;;;;;;;18.63;11.95;;;0.90;99.90;;;;;;5048986;28;20681;-71
2021/12/27 07:20:40;;;;;;;22.48;12.43;;;0.90;99.90;;;;;;5048880;28;20571;-71
2021/12/27 07:23:08;;;;;;;22.08;13.52;;;0.90;99.90;;;;;;5048852;28;20190;-69
2021/12/27 07:25:44;;;;;;;24.48;13.82;;;0.90;99.90;;;;;;5048345;28;20170;-70
2021/12/27 07:28:11;;;;;;;21.90;13.73;;;0.90;99.90;;;;;;5048799;28;20193;-71
2021/12/27 07:30:38;;;;;;;25.70;14.13;;;0.90;99.90;;;;;;5048380;28;20526;-71
2021/12/27 07:33:06;;;;;;;20.30;13.15;;;1.00;99.90;;;;;;5048635;28;20210;-70
2021/12/27 07:35:43;;;;;;;24.83;14.00;;;1.00;99.90;;;;;;5048876;28;20256;-69
2021/12/27 07:38:11;;;;;;;23.48;14.23;;;1.00;99.90;;;;;;5040874;28;20198;-71
2021/12/27 07:40:44;;;;;;;22.08;12.98;;;1.00;99.90;;;;;;5034362;28;20281;-69
2021/12/27 07:43:11;;;;;;;22.48;14.88;;;1.00;99.90;;;;;;5035301;28;20572;-72
2021/12/27 07:45:42;;;;;;;26.13;14.68;;;0.90;99.90;;;;;;5034887;28;20183;-69
2021/12/27 07:48:10;;;;;;;27.02;16.13;;;0.90;99.90;;;;;;5034712;28;20297;-70
2021/12/27 07:50:38;;;;;;;25.00;15.20;;;0.90;99.90;;;;;;5035229;28;20663;-69
2021/12/27 07:53:06;;;;;;;24.65;14.55;;;0.90;99.90;;;;;;5033735;28;20206;-69
2021/12/27 07:55:33;;;;;;;24.55;13.63;;;0.90;99.90;;;;;;5033375;28;20247;-71
2021/12/27 07:58:04;;;;;;;21.75;13.32;;;0.90;99.90;;;;;;5033583;28;20293;-71
2021/12/27 08:00:35;;;;;;;22.98;14.13;;;1.00;99.90;;;;;;5033090;28;20175;-71
2021/12/27 08:03:06;;;;;;;23.80;12.80;;;1.00;99.90;;;;;;5032479;28;20202;-71
2021/12/27 08:05:35;;;;;;;23.65;14.13;;;1.00;99.90;;;;;;5032643;28;20600;-71
2021/12/27 08:08:05;;;;;;;26.25;15.23;;;1.00;99.90;;;;;;5032655;28;20617;-69
2021/12/27 08:10:33;;;;;;;21.00;14.38;;;1.00;99.90;;;;;;5032223;28;20305;-69
2021/12/27 08:13:06;;;;;;;24.42;13.93;;;1.00;99.90;;;;;;5032367;28;20198;-71
2021/12/27 08:15:50;;;;;;;24.55;14.05;;;1.10;99.90;;;;;;5032388;28;20190;-71
2021/12/27 08:18:20;;;;;;;25.83;14.25;;;1.10;99.90;;;;;;5032786;28;20198;-69
2021/12/27 08:20:49;;;;;;;21.30;14.50;;;1.10;99.90;;;;;;5032433;28;20218;-71
2021/12/27 08:23:18;;;;;;;22.25;13.60;;;1.10;99.90;;;;;;5032279;28;20201;-69
2021/12/27 08:25:45;;;;;;;24.30;14.60;;;1.10;99.90;;;;;;5035378;28;20695;-71
2021/12/27 08:28:13;;;;;;;27.05;15.23;;;1.10;99.90;;;;;;5034140;28;20195;-70
2021/12/27 08:30:39;;;;;;;22.77;13.88;;;1.20;99.90;;;;;;5034377;28;20518;-71
2021/12/27 08:33:17;;;;;;;24.85;14.88;;;1.20;99.90;;;;;;5033650;28;20217;-71
2021/12/27 08:35:46;;;;;;;25.02;15.13;;;1.20;99.90;;;;;;5033669;28;20217;-69
2021/12/27 08:38:13;;;;;;;21.65;13.50;;;1.20;99.90;;;;;;5031418;28;20191;-71
2021/12/27 08:40:40;;;;;;;20.10;12.15;;;1.30;99.90;;;;;;5032804;28;20672;-71
2021/12/27 08:43:07;;;;;;;23.73;14.70;;;1.30;99.90;;;;;;5033411;28;20209;-69
2021/12/27 08:45:36;;;;;;;20.48;13.73;;;1.30;99.90;;;;;;5033265;28;20178;-71
2021/12/27 08:48:04;;;;;;;20.02;13.00;;;1.30;99.90;;;;;;5032944;28;20616;-71
2021/12/27 08:50:37;;;;;;;17.50;12.93;;;1.30;99.90;;;;;;5032697;28;20179;-70
2021/12/27 08:53:05;;;;;;;22.90;15.40;;;1.30;99.90;;;;;;5033831;28;20232;-70
2021/12/27 08:55:33;;;;;;;34.78;19.40;;;1.40;99.90;;;;;;5032553;28;20174;-70
2021/12/27 08:58:00;;;;;;;21.88;13.55;;;1.40;99.90;;;;;;5032555;28;20202;-69
2021/12/27 09:00:33;;;;;;;23.05;12.55;;;1.40;99.90;;;;;;5032646;28;20182;-70
2021/12/27 09:03:04;;;;;;;22.35;13.18;;;1.40;99.90;;;;;;5031503;28;20198;-71
2021/12/27 09:05:44;;;;;;;21.40;11.70;;;1.40;99.90;;;;;;5032183;28;20201;-69
2021/12/27 09:08:17;;;;;;;21.08;13.32;;;1.40;99.90;;;;;;5032466;28;20216;-71
2021/12/27 09:10:46;;;;;;;30.33;13.70;;;1.40;99.90;;;;;;5032125;28;20252;-71
2021/12/27 09:13:13;;;;;;;22.80;14.25;;;1.40;99.90;;;;;;5031303;28;20198;-70
2021/12/27 09:15:39;;;;;;;21.37;14.00;;;1.50;99.90;;;;;;5033317;28;20539;-70
2021/12/27 09:18:09;;;;;;;18.17;13.35;;;1.50;99.90;;;;;;5032264;28;20435;-70
2021/12/27 09:20:41;;;;;;;20.20;12.93;;;1.50;99.90;;;;;;5033449;28;20201;-71
2021/12/27 09:23:07;;;;;;;21.10;15.00;;;1.50;99.90;;;;;;5032640;28;20209;-69
2021/12/27 09:25:35;;;;;;;21.77;13.73;;;1.50;99.90;;;;;;5031327;28;20636;-71
2021/12/27 09:28:02;;;;;;;18.65;12.52;;;1.50;99.90;;;;;;5031869;28;20205;-69
2021/12/27 09:30:28;;;;;;;17.17;11.43;;;1.50;99.90;;;;;;5031790;28;20643;-71
2021/12/27 09:32:57;;;;;;;21.92;14.45;;;1.50;99.90;;;;;;5029332;28;20220;-71
2021/12/27 09:35:30;;;;;;;22.02;14.18;;;1.50;99.90;;;;;;5030380;28;20376;-68
2021/12/27 09:38:04;;;;;;;26.65;17.63;;;1.50;99.90;;;;;;5030550;28;20198;-70
2021/12/27 09:40:32;;;;;;;24.55;14.65;;;1.60;99.90;;;;;;5030338;28;20209;-70
2021/12/27 09:43:02;;;;;;;25.77;16.42;;;1.60;99.90;;;;;;5030189;28;20195;-70
2021/12/27 09:45:38;;;;;;;21.65;13.82;;;1.60;99.90;;;;;;5030778;28;20190;-69
2021/12/27 09:48:05;;;;;;;23.48;14.98;;;1.60;99.90;;;;;;5031898;28;20214;-70
2021/12/27 09:50:49;;;;;;;22.17;13.82;;;1.70;99.90;;;;;;5032589;28;20229;-69
2021/12/27 09:53:18;;;;;;;23.55;14.35;;;1.70;99.90;;;;;;5032660;28;20570;-68
2021/12/27 09:55:48;;;;;;;24.58;14.00;;;1.70;99.90;;;;;;5032676;28;20189;-69
2021/12/27 09:58:15;;;;;;;20.70;14.50;;;1.70;99.90;;;;;;5029091;28;20219;-68
2021/12/27 10:00:46;;;;;;;24.73;15.50;;;1.70;99.90;;;;;;5026772;28;20618;-69
2021/12/27 10:03:20;;;;;;;23.25;14.95;;;1.70;99.90;;;;;;5026931;28;20299;-68
2021/12/27 10:06:03;;;;;;;21.73;16.23;;;1.60;99.90;;;;;;5027642;28;20215;-69
2021/12/27 10:08:35;;;;;;;23.48;15.18;;;1.60;99.90;;;;;;5029449;28;20683;-70
2021/12/27 10:11:02;;;;;;;19.75;13.70;;;1.60;99.90;;;;;;5029158;28;20257;-70
2021/12/27 10:13:36;;;;;;;22.00;13.75;;;1.60;99.90;;;;;;5028888;28;20194;-68
2021/12/27 10:16:14;;;;;;;30.02;13.65;;;1.60;99.90;;;;;;5029332;28;20199;-70
2021/12/27 10:18:41;;;;;;;23.92;14.98;;;1.60;99.90;;;;;;5028394;28;20257;-70
2021/12/27 10:21:15;;;;;;;26.88;14.68;;;1.60;99.90;;;;;;5027080;28;20183;-69
2021/12/27 10:23:45;;;;;;;23.45;14.50;;;1.60;99.90;;;;;;5026845;28;20202;-68
2021/12/27 10:26:18;;;;;;;20.05;14.05;;;1.60;99.90;;;;;;5026432;28;20599;-68
2021/12/27 10:28:46;;;;;;;34.35;20.92;;;1.60;99.90;;;;;;5026122;28;20195;-72
2021/12/27 10:31:17;;;;;;;24.83;17.75;;;1.60;99.90;;;;;;5027157;28;20187;-70
2021/12/27 10:33:55;;;;;;;33.20;20.65;;;1.60;99.90;;;;;;5010317;28;20195;-70
2021/12/27 10:36:24;;;;;;;36.75;21.73;;;1.60;99.90;;;;;;5013190;28;20234;-68
2021/12/27 10:38:57;;;;;;;66.55;35.92;;;1.60;99.90;;;;;;5028907;28;20680;-70
2021/12/27 10:41:30;;;;;;;43.58;27.80;;;1.60;99.90;;;;;;5028835;28;20183;-70
2021/12/27 10:44:04;;;;;;;38.90;25.55;;;1.60;99.90;;;;;;5029273;28;20245;-68
2021/12/27 10:46:33;;;;;;;28.58;18.50;;;1.60;99.90;;;;;;5028433;28;20231;-71
2021/12/27 10:49:01;;;;;;;22.33;14.90;;;1.60;99.90;;;;;;5027106;28;20191;-68
2021/12/27 10:51:32;;;;;;;25.77;18.17;;;1.60;99.90;;;;;;5010115;28;20245;-69
2021/12/27 10:54:09;;;;;;;25.38;15.80;;;1.60;99.90;;;;;;5026544;28;20287;-70
2021/12/27 10:56:53;;;;;;;20.90;15.23;;;1.60;99.90;;;;;;5025612;28;20183;-68
2021/12/27 10:59:26;;;;;;;25.88;16.17;;;1.70;99.90;;;;;;5026113;28;20231;-68
2021/12/27 11:02:08;;;;;;;29.20;19.23;;;1.70;99.90;;;;;;5012258;28;20176;-68
2021/12/27 11:04:40;;;;;;;23.13;15.60;;;1.70;99.90;;;;;;5012208;28;20191;-70
2021/12/27 11:07:08;;;;;;;24.55;15.02;;;1.70;99.90;;;;;;5028727;28;20333;-69
2021/12/27 11:09:42;;;;;;;21.65;13.80;;;1.70;99.90;;;;;;5028783;28;20689;-69
2021/12/27 11:12:21;;;;;;;26.00;18.40;;;1.70;99.90;;;;;;5028465;28;20356;-71
2021/12/27 11:15:01;;;;;;;31.35;19.42;;;1.70;99.90;;;;;;5034602;28;20260;-70
2021/12/27 11:17:43;;;;;;;27.45;17.98;;;1.70;99.90;;;;;;5030724;28;20257;-70
2021/12/27 11:20:17;;;;;;;25.15;15.85;;;1.70;99.90;;;;;;5031696;28;20524;-68
2021/12/27 11:22:45;;;;;;;25.02;16.38;;;1.70;99.90;;;;;;5032938;28;20584;-70
2021/12/27 11:25:29;;;;;;;21.65;15.60;;;1.70;99.90;;;;;;5033081;28;20209;-72
2021/12/27 11:28:02;;;;;;;29.77;17.88;;;1.80;99.90;;;;;;5045204;28;20218;-68
2021/12/27 11:30:37;;;;;;;19.90;15.75;;;1.80;99.90;;;;;;5032802;28;20185;-70
2021/12/27 11:33:20;;;;;;;24.58;17.25;;;1.80;99.90;;;;;;5035172;28;20198;-70
2021/12/27 11:35:56;;;;;;;25.25;14.32;;;1.80;99.90;;;;;;5035105;28;20520;-68
2021/12/27 11:39:02;;;;;;;20.65;13.57;;;1.80;99.90;;;;;;5035149;28;20194;-70
2021/12/27 11:41:34;;;;;;;16.95;13.68;;;1.80;99.90;;;;;;5026359;28;20213;-68
2021/12/27 11:44:17;;;;;;;27.67;17.25;;;1.80;99.90;;;;;;5034920;28;20216;-68
2021/12/27 11:47:06;;;;;;;25.77;17.00;;;1.80;99.90;;;;;;5033535;28;20227;-69
2021/12/27 11:49:33;;;;;;;31.55;18.42;;;1.80;99.90;;;;;;5034348;28;20182;-70
2021/12/27 11:52:28;;;;;;;28.60;17.07;;;1.80;99.90;;;;;;5034705;28;20697;-70
2021/12/27 11:55:05;;;;;;;40.75;23.00;;;1.80;99.90;;;;;;5032816;28;20930;-70
2021/12/27 11:57:47;;;;;;;43.03;26.15;;;1.80;99.90;;;;;;5035122;28;20298;-68
2021/12/27 12:00:23;;;;;;;49.25;30.58;;;1.80;99.90;;;;;;5034531;28;20232;-70
2021/12/27 12:02:55;;;;;;;44.97;24.10;;;1.80;99.90;;;;;;5034207;28;20549;-70
2021/12/27 12:05:50;;;;;;;31.05;21.83;;;1.90;99.90;;;;;;5033815;28;20683;-68
2021/12/27 12:08:37;;;;;;;19.02;13.95;;;1.90;99.90;;;;;;5033020;28;20221;-68
2021/12/27 12:11:10;;;;;;;23.50;16.50;;;1.90;99.90;;;;;;5034423;28;20194;-68
2021/12/27 12:13:49;;;;;;;18.30;12.45;;;1.90;99.90;;;;;;5034465;28;20686;-68
2021/12/27 12:16:18;;;;;;;19.88;12.75;;;1.90;99.90;;;;;;5033893;28;20243;-71
2021/12/27 12:18:56;;;;;;;16.17;13.45;;;2.00;99.90;;;;;;5032460;28;20663;-69
2021/12/27 12:21:38;;;;;;;23.98;15.90;;;2.00;99.90;;;;;;5032372;28;20907;-68
2021/12/27 12:24:20;;;;;;;20.00;14.07;;;2.00;99.90;;;;;;5031162;28;20204;-71
2021/12/27 12:26:56;;;;;;;19.80;14.50;;;2.00;99.90;;;;;;5032089;28;20238;-69
2021/12/27 12:29:25;;;;;;;22.23;15.15;;;2.00;99.90;;;;;;5032861;28;20174;-71
2021/12/27 12:32:12;;;;;;;22.63;15.10;;;2.00;99.90;;;;;;5033229;28;20237;-70
2021/12/27 12:34:41;;;;;;;22.48;14.98;;;2.00;99.90;;;;;;5033297;28;20321;-70
2021/12/27 12:37:12;;;;;;;21.13;14.45;;;2.10;99.90;;;;;;5033961;28;20273;-70
2021/12/27 12:39:52;;;;;;;20.15;15.27;;;2.10;99.90;;;;;;5032319;28;20186;-71
2021/12/27 12:42:22;;;;;;;20.45;14.15;;;2.10;99.90;;;;;;5031623;28;20528;-70
2021/12/27 12:44:59;;;;;;;25.05;15.70;;;2.10;99.90;;;;;;5030332;28;20194;-70
2021/12/27 12:47:35;;;;;;;25.40;15.35;;;2.10;99.90;;;;;;5030331;28;20264;-68
2021/12/27 12:50:13;;;;;;;25.08;16.90;;;2.10;99.90;;;;;;5032313;28;20181;-68
2021/12/27 12:52:58;;;;;;;34.00;21.23;;;2.10;99.90;;;;;;5032037;28;20226;-72
2021/12/27 12:55:31;;;;;;;65.15;41.22;;;2.00;99.90;;;;;;5033070;28;20178;-71